sensor_id;sensor_type;location;lat;lon;timestamp;P1;durP1;ratioP1;P2;durP2;ratioP2
51692;SDS011;37777;53.066;21.638;2023-04-03T00:04:28;4.47;;;3.28;;
51692;SDS011;37777;53.066;21.638;2023-04-03T00:11:30;4.88;;;3.55;;
51692;SDS011;37777;53.066;21.638;2023-04-03T00:18:32;6.43;;;3.33;;
51692;SDS011;37777;53.066;21.638;2023-04-03T00:25:33;2.97;;;2.78;;
51692;SDS011;37777;53.066;21.638;2023-04-03T00:32:35;3.17;;;2.90;;
51692;SDS011;37777;53.066;21.638;2023-04-03T00:39:37;3.13;;;2.80;;
51692;SDS011;37777;53.066;21.638;2023-04-03T00:46:39;3.30;;;3.00;;
51692;SDS011;37777;53.066;21.638;2023-04-03T00:53:43;3.20;;;2.92;;
51692;SDS011;37777;53.066;21.638;2023-04-03T01:00:46;3.72;;;2.83;;
51692;SDS011;37777;53.066;21.638;2023-04-03T01:07:49;3.05;;;2.80;;
51692;SDS011;37777;53.066;21.638;2023-04-03T01:14:53;6.70;;;3.28;;
51692;SDS011;37777;53.066;21.638;2023-04-03T01:22:03;3.25;;;2.92;;
51692;SDS011;37777;53.066;21.638;2023-04-03T01:29:10;6.28;;;3.33;;
51692;SDS011;37777;53.066;21.638;2023-04-03T01:36:20;4.78;;;3.00;;
51692;SDS011;37777;53.066;21.638;2023-04-03T01:43:22;2.65;;;2.55;;
51692;SDS011;37777;53.066;21.638;2023-04-03T01:50:24;3.10;;;2.90;;
51692;SDS011;37777;53.066;21.638;2023-04-03T01:57:27;3.00;;;2.80;;
51692;SDS011;37777;53.066;21.638;2023-04-03T02:04:28;3.53;;;3.15;;
51692;SDS011;37777;53.066;21.638;2023-04-03T02:11:30;3.38;;;3.05;;
51692;SDS011;37777;53.066;21.638;2023-04-03T02:18:32;3.22;;;2.65;;
51692;SDS011;37777;53.066;21.638;2023-04-03T02:25:34;2.92;;;2.72;;
51692;SDS011;37777;53.066;21.638;2023-04-03T02:32:39;5.10;;;3.17;;
51692;SDS011;37777;53.066;21.638;2023-04-03T02:39:41;3.03;;;2.83;;
51692;SDS011;37777;53.066;21.638;2023-04-03T02:46:43;3.22;;;2.92;;
51692;SDS011;37777;53.066;21.638;2023-04-03T02:53:45;2.90;;;2.70;;
51692;SDS011;37777;53.066;21.638;2023-04-03T03:00:47;3.35;;;2.95;;
51692;SDS011;37777;53.066;21.638;2023-04-03T03:07:48;2.60;;;2.47;;
51692;SDS011;37777;53.066;21.638;2023-04-03T03:14:50;3.72;;;2.85;;
51692;SDS011;37777;53.066;21.638;2023-04-03T03:21:52;4.97;;;3.25;;
51692;SDS011;37777;53.066;21.638;2023-04-03T03:28:54;3.22;;;2.80;;
51692;SDS011;37777;53.066;21.638;2023-04-03T03:35:56;2.90;;;2.70;;
51692;SDS011;37777;53.066;21.638;2023-04-03T03:42:58;3.47;;;2.90;;
51692;SDS011;37777;53.066;21.638;2023-04-03T03:49:59;4.15;;;3.08;;
51692;SDS011;37777;53.066;21.638;2023-04-03T03:57:02;4.45;;;3.05;;
51692;SDS011;37777;53.066;21.638;2023-04-03T04:04:04;3.00;;;2.80;;
51692;SDS011;37777;53.066;21.638;2023-04-03T04:11:06;3.75;;;3.45;;
51692;SDS011;37777;53.066;21.638;2023-04-03T04:18:08;3.90;;;3.15;;
51692;SDS011;37777;53.066;21.638;2023-04-03T04:25:09;3.00;;;2.80;;
51692;SDS011;37777;53.066;21.638;2023-04-03T04:32:11;3.13;;;2.90;;
51692;SDS011;37777;53.066;21.638;2023-04-03T04:39:13;4.30;;;3.55;;
51692;SDS011;37777;53.066;21.638;2023-04-03T04:46:15;3.15;;;2.95;;
51692;SDS011;37777;53.066;21.638;2023-04-03T04:53:17;10.15;;;3.25;;
51692;SDS011;37777;53.066;21.638;2023-04-03T05:00:19;3.22;;;2.83;;
51692;SDS011;37777;53.066;21.638;2023-04-03T05:07:21;6.80;;;3.35;;
51692;SDS011;37777;53.066;21.638;2023-04-03T05:14:23;6.88;;;3.00;;
51692;SDS011;37777;53.066;21.638;2023-04-03T05:21:25;3.45;;;2.97;;
51692;SDS011;37777;53.066;21.638;2023-04-03T05:28:29;3.17;;;2.97;;
51692;SDS011;37777;53.066;21.638;2023-04-03T05:35:31;3.05;;;2.85;;
51692;SDS011;37777;53.066;21.638;2023-04-03T05:42:34;3.72;;;3.42;;
51692;SDS011;37777;53.066;21.638;2023-04-03T05:49:36;3.60;;;2.90;;
51692;SDS011;37777;53.066;21.638;2023-04-03T05:56:42;4.10;;;3.05;;
51692;SDS011;37777;53.066;21.638;2023-04-03T06:03:44;4.90;;;2.95;;
51692;SDS011;37777;53.066;21.638;2023-04-03T06:10:46;3.50;;;3.20;;
51692;SDS011;37777;53.066;21.638;2023-04-03T06:17:48;2.80;;;2.60;;
51692;SDS011;37777;53.066;21.638;2023-04-03T06:24:50;3.30;;;3.00;;
51692;SDS011;37777;53.066;21.638;2023-04-03T06:31:52;6.18;;;2.72;;
51692;SDS011;37777;53.066;21.638;2023-04-03T06:38:53;4.25;;;3.70;;
51692;SDS011;37777;53.066;21.638;2023-04-03T06:45:55;2.90;;;2.70;;
51692;SDS011;37777;53.066;21.638;2023-04-03T06:52:57;4.15;;;2.70;;
51692;SDS011;37777;53.066;21.638;2023-04-03T06:59:59;8.88;;;2.80;;
51692;SDS011;37777;53.066;21.638;2023-04-03T07:07:02;3.10;;;2.80;;
51692;SDS011;37777;53.066;21.638;2023-04-03T07:14:04;3.33;;;2.90;;
51692;SDS011;37777;53.066;21.638;2023-04-03T07:21:06;2.90;;;2.70;;
51692;SDS011;37777;53.066;21.638;2023-04-03T07:28:08;5.38;;;3.53;;
51692;SDS011;37777;53.066;21.638;2023-04-03T07:35:10;3.83;;;2.88;;
51692;SDS011;37777;53.066;21.638;2023-04-03T07:42:12;4.07;;;2.90;;
51692;SDS011;37777;53.066;21.638;2023-04-03T07:49:14;8.38;;;3.03;;
51692;SDS011;37777;53.066;21.638;2023-04-03T07:56:16;2.58;;;2.40;;
51692;SDS011;37777;53.066;21.638;2023-04-03T08:03:18;3.08;;;2.60;;
51692;SDS011;37777;53.066;21.638;2023-04-03T08:10:20;3.05;;;2.80;;
51692;SDS011;37777;53.066;21.638;2023-04-03T08:17:22;2.90;;;2.60;;
51692;SDS011;37777;53.066;21.638;2023-04-03T08:24:24;2.90;;;2.70;;
51692;SDS011;37777;53.066;21.638;2023-04-03T08:31:26;2.80;;;2.60;;
51692;SDS011;37777;53.066;21.638;2023-04-03T08:38:28;2.85;;;2.67;;
51692;SDS011;37777;53.066;21.638;2023-04-03T08:45:45;2.78;;;2.58;;
51692;SDS011;37777;53.066;21.638;2023-04-03T08:52:48;2.55;;;2.38;;
51692;SDS011;37777;53.066;21.638;2023-04-03T08:59:52;2.47;;;2.38;;
51692;SDS011;37777;53.066;21.638;2023-04-03T09:06:55;2.58;;;2.38;;
51692;SDS011;37777;53.066;21.638;2023-04-03T09:13:59;2.80;;;2.60;;
51692;SDS011;37777;53.066;21.638;2023-04-03T09:21:24;2.50;;;2.40;;
51692;SDS011;37777;53.066;21.638;2023-04-03T09:28:28;3.50;;;3.25;;
51692;SDS011;37777;53.066;21.638;2023-04-03T09:35:42;2.47;;;2.30;;
51692;SDS011;37777;53.066;21.638;2023-04-03T09:42:49;3.13;;;2.60;;
51692;SDS011;37777;53.066;21.638;2023-04-03T09:50:20;2.90;;;2.60;;
51692;SDS011;37777;53.066;21.638;2023-04-03T09:57:22;2.40;;;2.28;;
51692;SDS011;37777;53.066;21.638;2023-04-03T10:04:40;2.50;;;2.40;;
51692;SDS011;37777;53.066;21.638;2023-04-03T10:19:34;3.03;;;2.58;;
51692;SDS011;37777;53.066;21.638;2023-04-03T10:40:57;3.53;;;2.55;;
51692;SDS011;37777;53.066;21.638;2023-04-03T11:16:23;3.40;;;2.47;;
51692;SDS011;37777;53.066;21.638;2023-04-03T11:23:26;3.50;;;2.60;;
51692;SDS011;37777;53.066;21.638;2023-04-03T11:37:50;2.40;;;2.30;;
51692;SDS011;37777;53.066;21.638;2023-04-03T11:52:14;3.83;;;2.10;;
51692;SDS011;37777;53.066;21.638;2023-04-03T11:59:38;2.40;;;2.30;;
51692;SDS011;37777;53.066;21.638;2023-04-03T12:20:57;2.60;;;2.50;;
51692;SDS011;37777;53.066;21.638;2023-04-03T12:27:59;2.93;;;2.60;;
51692;SDS011;37777;53.066;21.638;2023-04-03T12:42:18;2.60;;;2.40;;
51692;SDS011;37777;53.066;21.638;2023-04-03T12:56:31;2.45;;;2.35;;
51692;SDS011;37777;53.066;21.638;2023-04-03T13:03:34;8.52;;;2.78;;
51692;SDS011;37777;53.066;21.638;2023-04-03T13:18:25;2.83;;;2.40;;
51692;SDS011;37777;53.066;21.638;2023-04-03T13:25:32;2.70;;;2.53;;
51692;SDS011;37777;53.066;21.638;2023-04-03T13:32:34;2.28;;;2.17;;
51692;SDS011;37777;53.066;21.638;2023-04-03T13:39:38;2.90;;;2.70;;
51692;SDS011;37777;53.066;21.638;2023-04-03T13:46:40;2.47;;;2.38;;
51692;SDS011;37777;53.066;21.638;2023-04-03T13:53:44;2.53;;;2.33;;
51692;SDS011;37777;53.066;21.638;2023-04-03T14:00:48;3.75;;;2.58;;
51692;SDS011;37777;53.066;21.638;2023-04-03T14:07:54;2.95;;;2.53;;
51692;SDS011;37777;53.066;21.638;2023-04-03T14:14:56;2.85;;;2.60;;
51692;SDS011;37777;53.066;21.638;2023-04-03T14:21:59;3.08;;;2.75;;
51692;SDS011;37777;53.066;21.638;2023-04-03T14:29:01;3.40;;;2.88;;
51692;SDS011;37777;53.066;21.638;2023-04-03T14:36:13;3.33;;;3.05;;
51692;SDS011;37777;53.066;21.638;2023-04-03T14:43:16;2.67;;;2.55;;
51692;SDS011;37777;53.066;21.638;2023-04-03T14:50:25;3.10;;;2.78;;
51692;SDS011;37777;53.066;21.638;2023-04-03T14:57:28;4.32;;;2.85;;
51692;SDS011;37777;53.066;21.638;2023-04-03T15:04:32;3.47;;;3.00;;
51692;SDS011;37777;53.066;21.638;2023-04-03T15:11:34;3.20;;;2.90;;
51692;SDS011;37777;53.066;21.638;2023-04-03T15:18:37;5.43;;;3.03;;
51692;SDS011;37777;53.066;21.638;2023-04-03T15:25:39;2.50;;;2.40;;
51692;SDS011;37777;53.066;21.638;2023-04-03T15:32:41;2.95;;;2.75;;
51692;SDS011;37777;53.066;21.638;2023-04-03T15:39:42;9.80;;;3.03;;
51692;SDS011;37777;53.066;21.638;2023-04-03T15:46:45;3.40;;;3.10;;
51692;SDS011;37777;53.066;21.638;2023-04-03T15:53:47;3.25;;;3.00;;
51692;SDS011;37777;53.066;21.638;2023-04-03T16:00:49;3.53;;;2.70;;
51692;SDS011;37777;53.066;21.638;2023-04-03T16:07:51;2.92;;;2.63;;
51692;SDS011;37777;53.066;21.638;2023-04-03T16:14:53;3.28;;;3.03;;
51692;SDS011;37777;53.066;21.638;2023-04-03T16:21:55;3.90;;;2.70;;
51692;SDS011;37777;53.066;21.638;2023-04-03T16:28:56;3.15;;;2.90;;
51692;SDS011;37777;53.066;21.638;2023-04-03T16:35:58;4.25;;;3.10;;
51692;SDS011;37777;53.066;21.638;2023-04-03T16:43:01;3.55;;;3.10;;
51692;SDS011;37777;53.066;21.638;2023-04-03T16:50:03;4.35;;;3.53;;
51692;SDS011;37777;53.066;21.638;2023-04-03T16:57:06;4.47;;;3.58;;
51692;SDS011;37777;53.066;21.638;2023-04-03T17:04:08;3.10;;;2.80;;
51692;SDS011;37777;53.066;21.638;2023-04-03T17:11:11;3.55;;;3.25;;
51692;SDS011;37777;53.066;21.638;2023-04-03T17:18:13;4.25;;;3.50;;
51692;SDS011;37777;53.066;21.638;2023-04-03T17:25:16;4.05;;;3.55;;
51692;SDS011;37777;53.066;21.638;2023-04-03T17:32:18;3.78;;;3.30;;
51692;SDS011;37777;53.066;21.638;2023-04-03T17:39:21;6.13;;;3.63;;
51692;SDS011;37777;53.066;21.638;2023-04-03T17:46:26;5.10;;;3.97;;
51692;SDS011;37777;53.066;21.638;2023-04-03T17:53:29;19.48;;;5.95;;
51692;SDS011;37777;53.066;21.638;2023-04-03T18:00:35;9.77;;;5.03;;
51692;SDS011;37777;53.066;21.638;2023-04-03T18:07:39;9.68;;;5.38;;
51692;SDS011;37777;53.066;21.638;2023-04-03T18:14:44;10.23;;;5.13;;
51692;SDS011;37777;53.066;21.638;2023-04-03T18:21:50;7.80;;;4.70;;
51692;SDS011;37777;53.066;21.638;2023-04-03T18:28:56;5.90;;;4.30;;
51692;SDS011;37777;53.066;21.638;2023-04-03T18:36:03;7.95;;;4.50;;
51692;SDS011;37777;53.066;21.638;2023-04-03T18:43:07;11.82;;;5.13;;
51692;SDS011;37777;53.066;21.638;2023-04-03T18:50:12;9.02;;;4.57;;
51692;SDS011;37777;53.066;21.638;2023-04-03T18:57:15;4.60;;;3.85;;
51692;SDS011;37777;53.066;21.638;2023-04-03T19:04:20;7.82;;;4.68;;
51692;SDS011;37777;53.066;21.638;2023-04-03T19:11:23;6.32;;;3.50;;
51692;SDS011;37777;53.066;21.638;2023-04-03T19:18:27;5.55;;;4.25;;
51692;SDS011;37777;53.066;21.638;2023-04-03T19:25:32;5.03;;;4.03;;
51692;SDS011;37777;53.066;21.638;2023-04-03T19:32:34;7.70;;;5.47;;
51692;SDS011;37777;53.066;21.638;2023-04-03T19:39:40;10.48;;;5.00;;
51692;SDS011;37777;53.066;21.638;2023-04-03T19:46:43;8.30;;;4.53;;
51692;SDS011;37777;53.066;21.638;2023-04-03T19:53:52;7.75;;;5.13;;
51692;SDS011;37777;53.066;21.638;2023-04-03T20:00:55;6.65;;;4.13;;
51692;SDS011;37777;53.066;21.638;2023-04-03T20:07:58;7.47;;;4.68;;
51692;SDS011;37777;53.066;21.638;2023-04-03T20:15:00;4.80;;;4.18;;
51692;SDS011;37777;53.066;21.638;2023-04-03T20:22:04;13.63;;;4.70;;
51692;SDS011;37777;53.066;21.638;2023-04-03T20:29:07;8.93;;;5.00;;
51692;SDS011;37777;53.066;21.638;2023-04-03T20:36:09;10.20;;;5.07;;
51692;SDS011;37777;53.066;21.638;2023-04-03T20:43:11;10.35;;;4.97;;
51692;SDS011;37777;53.066;21.638;2023-04-03T20:50:13;6.82;;;4.90;;
51692;SDS011;37777;53.066;21.638;2023-04-03T20:57:15;12.48;;;4.50;;
51692;SDS011;37777;53.066;21.638;2023-04-03T21:04:27;13.27;;;5.15;;
51692;SDS011;37777;53.066;21.638;2023-04-03T21:19:06;10.82;;;5.10;;
51692;SDS011;37777;53.066;21.638;2023-04-03T21:26:10;11.43;;;5.73;;
51692;SDS011;37777;53.066;21.638;2023-04-03T21:33:11;10.32;;;5.30;;
51692;SDS011;37777;53.066;21.638;2023-04-03T21:40:13;7.25;;;4.93;;
51692;SDS011;37777;53.066;21.638;2023-04-03T21:47:15;13.45;;;6.05;;
51692;SDS011;37777;53.066;21.638;2023-04-03T21:54:17;9.32;;;5.25;;
51692;SDS011;37777;53.066;21.638;2023-04-03T22:01:19;8.20;;;5.22;;
51692;SDS011;37777;53.066;21.638;2023-04-03T22:08:21;8.60;;;5.05;;
51692;SDS011;37777;53.066;21.638;2023-04-03T22:15:23;9.15;;;5.55;;
51692;SDS011;37777;53.066;21.638;2023-04-03T22:22:25;8.80;;;4.40;;
51692;SDS011;37777;53.066;21.638;2023-04-03T22:29:27;6.75;;;5.28;;
51692;SDS011;37777;53.066;21.638;2023-04-03T22:36:29;7.03;;;5.13;;
51692;SDS011;37777;53.066;21.638;2023-04-03T22:43:31;9.48;;;5.07;;
51692;SDS011;37777;53.066;21.638;2023-04-03T22:50:33;12.00;;;6.07;;
51692;SDS011;37777;53.066;21.638;2023-04-03T22:57:37;9.50;;;5.95;;
51692;SDS011;37777;53.066;21.638;2023-04-03T23:04:39;6.28;;;4.65;;
51692;SDS011;37777;53.066;21.638;2023-04-03T23:11:41;8.45;;;4.80;;
51692;SDS011;37777;53.066;21.638;2023-04-03T23:18:44;9.27;;;4.90;;
51692;SDS011;37777;53.066;21.638;2023-04-03T23:25:50;9.13;;;4.78;;
51692;SDS011;37777;53.066;21.638;2023-04-03T23:32:51;6.80;;;4.68;;
51692;SDS011;37777;53.066;21.638;2023-04-03T23:39:53;13.40;;;6.15;;
51692;SDS011;37777;53.066;21.638;2023-04-03T23:46:55;18.25;;;7.30;;
51692;SDS011;37777;53.066;21.638;2023-04-03T23:53:58;13.05;;;5.28;;
